createdAt,value
2019-03-23T09:32:59.764Z,98178.59
2019-03-23T09:35:31.008Z,98178.30
2019-03-23T09:38:02.692Z,98174.64
2019-03-23T09:40:34.396Z,98186.16
2019-03-23T09:43:05.314Z,98186.39
2019-03-23T09:45:36.006Z,98183.24
2019-03-23T09:48:07.725Z,98179.87
2019-03-23T09:50:38.320Z,98184.08
2019-03-23T09:53:09.456Z,98178.02
2019-03-23T09:55:40.407Z,98183.45
2019-03-23T09:58:11.059Z,98180.67
2019-03-23T10:00:41.814Z,98182.53
2019-03-23T10:03:12.508Z,98176.27
2019-03-23T10:05:43.136Z,98181.19
2019-03-23T10:08:14.853Z,98174.25
2019-03-23T10:10:45.505Z,98176.07
2019-03-23T10:13:16.510Z,98171.93
2019-03-23T10:15:47.378Z,98168.84
2019-03-23T10:18:18.579Z,98177.13
2019-03-23T10:20:49.283Z,98176.72
2019-03-23T10:23:19.947Z,98171.33
2019-03-23T10:25:50.611Z,98175.05
2019-03-23T10:28:22.927Z,98175.91
2019-03-23T10:30:53.669Z,98175.83
2019-03-23T10:33:24.270Z,98166.63
2019-03-23T10:35:55.010Z,98164.39
2019-03-23T10:38:25.654Z,98164.44
2019-03-23T10:44:41.507Z,98159.78
2019-03-23T10:47:12.231Z,98155.58
2019-03-23T10:49:42.885Z,98153.81
2019-03-23T10:52:13.647Z,98143.01
2019-03-23T10:54:44.279Z,98140.16
2019-03-23T10:57:15.366Z,98146.37
2019-03-23T10:59:46.002Z,98146.59
2019-03-23T11:02:16.687Z,98140.65
2019-03-23T11:04:47.716Z,98138.11
2019-03-23T11:07:18.730Z,98129.86
2019-03-23T11:09:49.378Z,98133.31
2019-03-23T11:12:20.325Z,98131.14
2019-03-23T11:14:51.388Z,98124.89
2019-03-23T11:17:22.763Z,98123.47
2019-03-23T11:19:53.399Z,98123.24
2019-03-23T11:22:24.057Z,98123.24
2019-03-23T11:24:54.702Z,98117.84
2019-03-23T11:27:25.391Z,98126.50
2019-03-23T11:29:56.011Z,98110.79
2019-03-23T11:32:26.678Z,98125.78
2019-03-23T11:34:58.343Z,98118.55
2019-03-23T11:37:31.047Z,98118.23
2019-03-23T11:40:01.956Z,98118.23
2019-03-23T11:42:33.356Z,98113.93
2019-03-23T11:45:04.053Z,98113.92
2019-03-23T11:47:34.719Z,98112.26
2019-03-23T11:50:06.031Z,98111.06
2019-03-23T11:52:36.697Z,98106.83
2019-03-23T11:55:07.445Z,98105.69
2019-03-23T11:57:38.118Z,98106.91
2019-03-23T12:00:10.083Z,98108.84
2019-03-23T12:02:40.991Z,98108.03
2019-03-23T12:05:12.511Z,98104.38
2019-03-23T12:07:44.100Z,98095.58
2019-03-23T12:10:15.016Z,98094.67
2019-03-23T12:12:45.691Z,98082.89
2019-03-23T12:15:16.346Z,98089.70
2019-03-23T12:17:47.017Z,98082.29
2019-03-23T12:20:17.677Z,98085.59
2019-03-23T12:22:48.319Z,98085.38
2019-03-23T12:25:19.769Z,98078.06
2019-03-23T12:27:50.552Z,98076.09
2019-03-23T12:30:21.933Z,98080.80
2019-03-23T12:32:52.649Z,98075.24
2019-03-23T12:35:23.301Z,98072.91
2019-03-23T12:37:53.943Z,98071.77
2019-03-23T12:40:24.604Z,98073.99
2019-03-23T12:42:56.239Z,98079.23
2019-03-23T12:45:26.792Z,98071.00
2019-03-23T12:47:57.493Z,98075.15
2019-03-23T12:50:28.370Z,98072.20
2019-03-23T12:52:59.112Z,98069.88
2019-03-23T12:55:30.022Z,98063.27
2019-03-23T12:58:00.933Z,98063.99
2019-03-23T13:00:32.087Z,98060.05
2019-03-23T13:03:02.815Z,98053.10
2019-03-23T13:05:35.896Z,98053.10
2019-03-23T13:08:06.759Z,98062.77
2019-03-23T13:10:39.532Z,98061.88
2019-03-23T13:13:10.225Z,98060.38
2019-03-23T13:15:40.964Z,98044.23
2019-03-23T13:18:14.254Z,98045.83
2019-03-23T13:20:45.600Z,98048.78
2019-03-23T13:23:16.284Z,98042.55
2019-03-23T13:25:47.946Z,98048.80
2019-03-23T13:28:19.017Z,98048.15
2019-03-23T13:30:49.674Z,98040.06
2019-03-23T13:33:20.734Z,98040.66
2019-03-23T13:35:51.434Z,98041.06
2019-03-23T13:38:22.177Z,98038.23
2019-03-23T13:40:53.096Z,98038.86
2019-03-23T13:43:23.922Z,98035.45
2019-03-23T13:45:54.917Z,98039.28
2019-03-23T13:48:25.642Z,98032.94
2019-03-23T13:50:56.327Z,98037.70
2019-03-23T13:53:27.072Z,98032.47
2019-03-23T13:55:57.778Z,98030.70
2019-03-23T13:58:28.499Z,98026.78
2019-03-23T14:00:59.192Z,98036.61
2019-03-23T14:03:29.885Z,98044.00
2019-03-23T14:06:00.903Z,98037.20
2019-03-23T14:08:31.674Z,98038.91
2019-03-23T14:11:02.373Z,98036.97
2019-03-23T14:13:33.102Z,98041.19
2019-03-23T14:16:03.769Z,98038.64
2019-03-23T14:18:35.835Z,98042.67
2019-03-23T14:21:06.510Z,98044.30
2019-03-23T14:23:37.272Z,98044.01
2019-03-23T14:26:07.950Z,98045.04
2019-03-23T14:28:38.717Z,98042.14
2019-03-23T14:31:09.836Z,98040.23
2019-03-23T14:33:40.698Z,98044.01
2019-03-23T14:36:11.386Z,98044.88
2019-03-23T14:38:43.359Z,98037.66
2019-03-23T14:41:14.281Z,98039.83
2019-03-23T14:43:49.151Z,98038.91
2019-03-23T14:46:20.379Z,98044.20
2019-03-23T14:48:54.458Z,98035.59
2019-03-23T14:51:27.626Z,98038.06
2019-03-23T14:54:03.498Z,98037.97
2019-03-23T14:56:34.340Z,98027.14
2019-03-23T14:59:05.845Z,98039.52
2019-03-23T15:04:57.243Z,98037.73
2019-03-23T15:08:44.390Z,98039.53
2019-03-23T15:10:56.295Z,98038.12
2019-03-23T15:11:21.712Z,98038.20
2019-03-23T15:16:57.363Z,98033.12
2019-03-23T15:19:28.018Z,98036.74
2019-03-23T15:21:58.726Z,98037.70
2019-03-23T15:24:29.383Z,98033.06
2019-03-23T15:27:02.364Z,98035.03
2019-03-23T15:29:33.137Z,98037.13
2019-03-23T15:32:03.841Z,98040.58
2019-03-23T15:34:34.521Z,98031.26
2019-03-23T15:37:05.519Z,98044.95
2019-03-23T15:39:36.453Z,98044.61
2019-03-23T15:42:07.146Z,98048.58
2019-03-23T15:44:38.207Z,98049.59
2019-03-23T15:47:08.907Z,98050.08
2019-03-23T15:49:40.282Z,98059.39
2019-03-23T15:52:10.995Z,98059.97
2019-03-23T15:54:41.927Z,98058.93
2019-03-23T15:57:12.935Z,98057.31
2019-03-23T15:59:44.030Z,98052.70
2019-03-23T16:02:15.097Z,98060.09
2019-03-23T16:04:46.043Z,98059.13
2019-03-23T16:07:17.030Z,98060.41
2019-03-23T16:09:47.683Z,98063.80
2019-03-23T16:12:18.384Z,98068.84
2019-03-23T16:14:49.318Z,98073.05
2019-03-23T16:17:20.046Z,98079.02
2019-03-23T16:19:50.692Z,98090.17
2019-03-23T16:22:21.406Z,98104.95
2019-03-23T16:24:52.105Z,98105.01
2019-03-23T16:27:22.826Z,98106.12
2019-03-23T16:29:53.521Z,98104.05
2019-03-23T16:32:24.612Z,98111.56
2019-03-23T16:34:55.302Z,98116.84
2019-03-23T16:37:27.008Z,98122.12
2019-03-23T16:40:01.609Z,98131.39
2019-03-23T16:42:33.172Z,98133.70
2019-03-23T16:45:04.410Z,98137.26
2019-03-23T16:47:35.471Z,98139.33
2019-03-23T16:50:07.681Z,98143.28
2019-03-23T16:52:39.483Z,98145.29
2019-03-23T16:55:10.737Z,98138.38
2019-03-23T16:57:41.452Z,98152.18
2019-03-23T17:00:12.715Z,98150.08
2019-03-23T17:02:43.554Z,98158.44
2019-03-23T17:05:14.261Z,98163.45
2019-03-23T17:07:45.362Z,98164.58
2019-03-23T17:10:16.093Z,98169.82
2019-03-23T17:12:55.159Z,98175.13
2019-03-23T17:15:19.772Z,98179.75
2019-03-23T17:17:50.674Z,98185.86
2019-03-23T17:20:21.712Z,98184.03
2019-03-23T17:22:53.740Z,98194.83
2019-03-23T17:25:24.468Z,98198.59
2019-03-23T17:27:55.645Z,98201.63
2019-03-23T17:30:26.374Z,98210.75
2019-03-23T17:32:57.173Z,98212.24
2019-03-23T17:35:27.964Z,98218.16
2019-03-23T17:37:59.149Z,98215.00
2019-03-23T17:40:30.274Z,98223.18
2019-03-23T17:43:05.945Z,98222.38
2019-03-23T17:45:34.075Z,98239.08
2019-03-23T17:48:05.102Z,98242.87
2019-03-23T17:50:35.790Z,98243.20
2019-03-23T17:53:06.593Z,98252.93
2019-03-23T17:55:37.273Z,98260.09
2019-03-23T17:58:08.213Z,98268.99
2019-03-23T18:00:38.937Z,98266.91
2019-03-23T18:03:09.645Z,98272.03
2019-03-23T18:05:41.912Z,98266.23
2019-03-23T18:08:12.676Z,98269.55
2019-03-23T18:10:43.363Z,98280.03
2019-03-23T18:13:16.738Z,98287.11
2019-03-23T18:15:48.100Z,98291.41
2019-03-23T18:18:19.781Z,98292.61
2019-03-23T18:20:50.779Z,98305.42
2019-03-23T18:23:21.475Z,98304.02
2019-03-23T18:25:58.341Z,98319.16
2019-03-23T18:28:29.758Z,98323.80
2019-03-23T18:31:00.764Z,98330.91
2019-03-23T18:33:31.598Z,98333.88
2019-03-23T18:36:02.261Z,98336.10
2019-03-23T18:38:33.027Z,98339.15
2019-03-23T18:41:04.118Z,98345.29
2019-03-23T18:43:34.849Z,98353.34
2019-03-23T18:46:05.865Z,98363.75
2019-03-23T18:48:36.602Z,98370.74
2019-03-23T18:51:07.304Z,98377.91
2019-03-23T18:53:39.000Z,98379.08
2019-03-23T18:56:09.769Z,98384.44
2019-03-23T18:58:40.520Z,98390.11
2019-03-23T19:01:11.495Z,98394.03
2019-03-23T19:03:46.265Z,98397.58
2019-03-23T19:06:17.106Z,98404.45
2019-03-23T19:08:47.786Z,98405.31
2019-03-23T19:11:18.492Z,98404.23
2019-03-23T19:13:49.209Z,98409.67
2019-03-23T19:16:19.925Z,98409.56
2019-03-23T19:18:50.909Z,98416.10
2019-03-23T19:21:22.562Z,98421.20
2019-03-23T19:23:53.523Z,98423.45
2019-03-23T19:26:24.767Z,98422.75
2019-03-23T19:28:55.615Z,98417.68
2019-03-23T19:31:26.354Z,98422.84
2019-03-23T19:33:57.078Z,98435.47
2019-03-23T19:36:30.353Z,98433.19
2019-03-23T19:39:01.114Z,98435.13
2019-03-23T19:41:32.376Z,98436.53
2019-03-23T19:44:03.112Z,98445.55
2019-03-23T19:46:33.855Z,98445.52
2019-03-23T19:49:05.662Z,98443.98
2019-03-23T19:51:36.729Z,98447.59
2019-03-23T19:54:07.710Z,98443.61
2019-03-23T19:56:38.462Z,98440.11
2019-03-23T19:59:09.811Z,98449.34
2019-03-23T20:01:40.568Z,98453.62
2019-03-23T20:04:12.602Z,98456.69
2019-03-23T20:06:43.538Z,98452.96
2019-03-23T20:09:14.235Z,98459.44
2019-03-23T20:11:45.215Z,98458.70
2019-03-23T20:14:16.025Z,98462.52
2019-03-23T20:16:46.791Z,98461.91
2019-03-23T20:19:17.545Z,98465.38
2019-03-23T20:21:48.611Z,98467.08
2019-03-23T20:24:19.359Z,98463.30
2019-03-23T20:26:51.146Z,98456.49
2019-03-23T20:29:21.826Z,98457.62
2019-03-23T20:31:52.602Z,98453.30
2019-03-23T20:34:23.383Z,98455.86
2019-03-23T20:36:54.328Z,98451.50
2019-03-23T20:39:25.098Z,98449.43
2019-03-23T20:41:56.113Z,98451.50
2019-03-23T20:44:27.177Z,98444.19
2019-03-23T20:46:58.913Z,98442.75
2019-03-23T20:49:29.995Z,98447.06
2019-03-23T20:52:00.991Z,98439.73
2019-03-23T20:54:32.342Z,98442.46
2019-03-23T20:57:03.213Z,98438.32
2019-03-23T20:59:34.258Z,98433.48
2019-03-23T21:02:05.049Z,98433.69
2019-03-23T21:04:36.035Z,98434.83
2019-03-23T21:07:06.759Z,98435.47
2019-03-23T21:09:37.599Z,98443.23
2019-03-23T21:12:08.316Z,98438.86
2019-03-23T21:14:39.052Z,98434.84
2019-03-23T21:17:10.298Z,98435.82
2019-03-23T21:19:41.305Z,98429.62
2019-03-23T21:22:11.962Z,98436.63
2019-03-23T21:24:42.772Z,98433.03
2019-03-23T21:27:13.424Z,98426.44
2019-03-23T21:29:44.178Z,98429.12
2019-03-23T21:32:15.607Z,98425.21
2019-03-23T21:34:46.348Z,98427.84
2019-03-23T21:37:16.996Z,98425.73
2019-03-23T21:39:47.655Z,98419.92
2019-03-23T21:42:18.658Z,98422.52
2019-03-23T21:44:49.604Z,98415.52
2019-03-23T21:47:20.541Z,98407.91
2019-03-23T21:49:51.294Z,98409.91
2019-03-23T21:52:22.290Z,98413.30
2019-03-23T21:54:53.281Z,98414.53
2019-03-23T21:57:25.171Z,98418.61
2019-03-23T21:59:55.848Z,98415.42
2019-03-23T22:02:26.557Z,98413.39
2019-03-23T22:04:57.536Z,98411.50
2019-03-23T22:07:28.289Z,98410.83
2019-03-23T22:09:58.907Z,98405.41
2019-03-23T22:12:29.597Z,98410.57
2019-03-23T22:15:00.340Z,98412.56
2019-03-23T22:17:31.000Z,98410.64
2019-03-23T22:20:01.691Z,98399.86
2019-03-23T22:22:32.477Z,98403.82
2019-03-23T22:25:03.194Z,98406.81
2019-03-23T22:27:34.073Z,98408.22
2019-03-23T22:30:06.187Z,98411.36
2019-03-23T22:32:37.313Z,98411.81
2019-03-23T22:35:08.516Z,98407.86
2019-03-23T22:37:39.486Z,98401.92
2019-03-23T22:40:10.386Z,98394.50
2019-03-23T22:42:41.037Z,98398.87
2019-03-23T22:45:12.196Z,98399.25
2019-03-23T22:47:42.887Z,98398.06
2019-03-23T22:50:13.932Z,98391.61
2019-03-23T22:52:44.610Z,98391.77
2019-03-23T22:55:15.261Z,98390.72
2019-03-23T22:57:45.936Z,98391.05
2019-03-23T23:00:21.014Z,98384.45
2019-03-23T23:02:53.295Z,98382.14
2019-03-23T23:05:24.039Z,98391.23
2019-03-23T23:07:54.765Z,98388.66
2019-03-23T23:10:25.881Z,98381.26
2019-03-23T23:12:57.549Z,98374.00
2019-03-23T23:15:28.527Z,98388.19
2019-03-23T23:17:59.468Z,98378.16
2019-03-23T23:20:30.195Z,98372.30
2019-03-23T23:23:00.879Z,98375.63
2019-03-23T23:25:31.844Z,98371.64
2019-03-23T23:28:02.573Z,98372.94
2019-03-23T23:30:33.286Z,98372.50
2019-03-23T23:33:04.428Z,98367.73
2019-03-23T23:35:35.186Z,98371.41
2019-03-23T23:38:06.168Z,98369.16
2019-03-23T23:40:36.919Z,98367.83
2019-03-23T23:43:07.828Z,98363.55
2019-03-23T23:45:39.971Z,98360.47
2019-03-23T23:48:11.506Z,98357.91
2019-03-23T23:50:42.306Z,98356.55
2019-03-23T23:53:13.051Z,98352.41
2019-03-23T23:55:43.802Z,98353.72
2019-03-23T23:58:14.921Z,98351.90
